Time;durP1;ratioP1;P1;durP2;ratioP2;P2;SDS_P1;SDS_P2;PMS_P1;PMS_P2;Temp;Humidity;BMP_temperature;BMP_pressure;BME280_temperature;BME280_humidity;BME280_pressure;Samples;Min_cycle;Max_cycle;Signal;HPM_P1;HPM_P2
2021/12/14 00:03:05;;;;;;;57.47;32.70;;;11.10;86.30;;;;;;10510099;28;20699;-78
2021/12/14 00:08:12;;;;;;;54.77;29.93;;;10.70;87.50;;;;;;10514527;28;20711;-79
2021/12/14 00:18:26;;;;;;;54.67;30.27;;;10.80;87.20;;;;;;10520190;28;20239;-78
2021/12/14 00:28:53;;;;;;;49.40;29.13;;;10.90;86.70;;;;;;10504939;28;20296;-78
2021/12/14 00:33:59;;;;;;;54.03;30.43;;;11.00;86.20;;;;;;10530905;28;20668;-78
2021/12/14 00:39:06;;;;;;;53.23;30.27;;;11.00;86.00;;;;;;10481240;28;20685;-79
2021/12/14 00:44:11;;;;;;;56.37;30.27;;;11.00;85.90;;;;;;10504874;28;20230;-79
2021/12/14 00:49:15;;;;;;;50.77;29.43;;;11.00;85.90;;;;;;10496333;28;20732;-79
2021/12/14 00:54:19;;;;;;;55.27;31.97;;;11.20;85.20;;;;;;10442855;28;20680;-78
2021/12/14 00:59:22;;;;;;;64.73;33.13;;;11.00;85.30;;;;;;10488811;28;20241;-78
2021/12/14 01:04:31;;;;;;;57.30;32.90;;;11.00;85.70;;;;;;10477016;28;20231;-79
2021/12/14 01:09:39;;;;;;;51.50;31.30;;;10.90;85.70;;;;;;10490855;28;20251;-79
2021/12/14 01:15:25;;;;;;;50.17;28.67;;;11.00;85.70;;;;;;10460654;28;20704;-79
2021/12/14 01:20:36;;;;;;;55.00;29.00;;;11.00;85.90;;;;;;10458975;28;20647;-78
2021/12/14 01:25:38;;;;;;;52.30;29.53;;;11.00;85.70;;;;;;10495941;28;20247;-78
2021/12/14 01:31:13;;;;;;;47.60;29.10;;;11.00;85.90;;;;;;10483940;28;20205;-78
2021/12/14 01:36:31;;;;;;;50.90;28.67;;;11.00;85.50;;;;;;10491695;28;20276;-79
2021/12/14 01:41:35;;;;;;;52.10;30.90;;;10.90;85.20;;;;;;10512017;28;20237;-79
2021/12/14 01:46:53;;;;;;;52.10;28.93;;;10.80;85.70;;;;;;10518443;28;20256;-79
2021/12/14 01:52:18;;;;;;;50.33;29.17;;;10.80;86.20;;;;;;10537207;28;20228;-78
2021/12/14 01:57:24;;;;;;;50.33;27.10;;;11.10;85.60;;;;;;10517706;28;20205;-79
2021/12/14 02:02:41;;;;;;;45.07;26.37;;;11.10;85.20;;;;;;10494975;28;20213;-79
2021/12/14 02:07:45;;;;;;;64.30;36.33;;;11.10;85.30;;;;;;10480366;28;20268;-79
2021/12/14 02:12:48;;;;;;;48.57;26.93;;;11.20;83.80;;;;;;10502628;28;20222;-78
2021/12/14 02:17:52;;;;;;;52.57;28.97;;;11.10;84.80;;;;;;10520158;28;20294;-79
2021/12/14 02:22:55;;;;;;;45.70;26.53;;;11.00;84.90;;;;;;10495488;28;20209;-79
2021/12/14 02:28:04;;;;;;;46.87;27.47;;;11.00;85.10;;;;;;10481049;28;20256;-78
2021/12/14 02:33:32;;;;;;;50.63;27.40;;;11.10;85.10;;;;;;10522245;28;20274;-78
2021/12/14 02:38:44;;;;;;;42.97;25.83;;;11.10;84.80;;;;;;10517584;28;20814;-79
2021/12/14 02:43:55;;;;;;;45.87;26.77;;;11.10;84.80;;;;;;10496070;28;20240;-78
2021/12/14 02:49:10;;;;;;;47.63;27.13;;;11.10;84.80;;;;;;10474247;28;20252;-78
2021/12/14 02:54:38;;;;;;;50.10;28.60;;;11.30;84.40;;;;;;10443216;28;20631;-79
2021/12/14 02:59:43;;;;;;;48.30;28.93;;;11.40;83.60;;;;;;10437855;28;20241;-79
2021/12/14 03:04:53;;;;;;;45.83;25.50;;;11.20;84.00;;;;;;10457743;28;20272;-79
2021/12/14 03:10:19;;;;;;;46.37;28.20;;;11.40;83.40;;;;;;10456001;28;20313;-79
2021/12/14 03:15:22;;;;;;;50.57;29.03;;;11.50;82.80;;;;;;10436606;28;20248;-79
2021/12/14 03:20:41;;;;;;;46.00;25.60;;;11.00;83.80;;;;;;10452838;28;20598;-78
2021/12/14 03:25:48;;;;;;;47.73;26.97;;;10.90;84.80;;;;;;10483462;28;20209;-78
2021/12/14 03:30:58;;;;;;;43.87;26.53;;;11.00;84.80;;;;;;10490760;28;20294;-79
2021/12/14 03:36:09;;;;;;;38.03;23.83;;;10.90;84.90;;;;;;10476233;28;20619;-78
2021/12/14 03:41:19;;;;;;;45.00;26.83;;;11.20;84.40;;;;;;10459671;28;20197;-79
2021/12/14 03:46:28;;;;;;;44.97;26.33;;;11.20;84.10;;;;;;10489813;28;20317;-79
2021/12/14 03:51:31;;;;;;;44.10;26.30;;;11.20;84.30;;;;;;10501196;28;20254;-79
2021/12/14 03:56:36;;;;;;;46.07;25.73;;;11.10;84.40;;;;;;10480216;28;20204;-79
2021/12/14 04:01:44;;;;;;;38.30;24.00;;;11.00;84.60;;;;;;10439558;28;20210;-79
2021/12/14 04:06:51;;;;;;;42.53;24.20;;;10.90;85.10;;;;;;10480600;28;20264;-79
2021/12/14 04:11:55;;;;;;;40.53;24.47;;;11.20;84.30;;;;;;10460978;28;20289;-79
2021/12/14 04:17:00;;;;;;;46.17;26.43;;;11.20;83.60;;;;;;10494031;28;20236;-79
2021/12/14 04:22:09;;;;;;;42.70;26.67;;;11.00;83.90;;;;;;10479442;28;20553;-79
2021/12/14 04:27:17;;;;;;;46.47;25.93;;;10.90;84.50;;;;;;10475768;28;20620;-79
2021/12/14 04:32:20;;;;;;;44.63;24.00;;;10.70;85.50;;;;;;10494828;28;20248;-79
2021/12/14 04:37:24;;;;;;;43.67;24.03;;;10.70;85.60;;;;;;10466563;28;20243;-79
2021/12/14 04:53:23;;;;;;;43.93;23.13;;;11.00;84.30;;;;;;10474962;28;20237;-79
2021/12/14 04:58:32;;;;;;;38.50;23.43;;;10.80;84.90;;;;;;10471240;28;20601;-79
2021/12/14 05:03:53;;;;;;;40.90;24.27;;;10.70;85.60;;;;;;10457929;28;20294;-79
2021/12/14 05:14:30;;;;;;;36.77;22.43;;;10.80;85.50;;;;;;10474487;28;20630;-79
2021/12/14 05:19:38;;;;;;;40.77;22.73;;;10.80;85.50;;;;;;10491416;28;20209;-79
2021/12/14 05:24:45;;;;;;;37.17;22.20;;;10.80;85.30;;;;;;10447013;28;20205;-79
2021/12/14 05:29:48;;;;;;;39.77;22.67;;;10.90;85.20;;;;;;10466567;28;20592;-79
2021/12/14 05:34:50;;;;;;;47.77;25.40;;;11.00;84.80;;;;;;10442891;28;20224;-79
2021/12/14 05:40:01;;;;;;;37.30;21.70;;;11.00;84.40;;;;;;10490968;28;20681;-80
2021/12/14 05:45:15;;;;;;;34.93;20.07;;;11.00;84.40;;;;;;10509657;28;20692;-80
2021/12/14 05:50:23;;;;;;;38.83;21.90;;;10.90;85.00;;;;;;10496557;28;20260;-80
2021/12/14 05:55:36;;;;;;;36.73;22.90;;;11.10;84.50;;;;;;10503451;28;20677;-80
2021/12/14 06:00:44;;;;;;;39.23;23.60;;;11.00;84.50;;;;;;10518975;28;20283;-80
2021/12/14 06:05:50;;;;;;;39.90;22.17;;;10.90;84.80;;;;;;10445886;28;20297;-80
2021/12/14 06:10:53;;;;;;;38.20;23.07;;;11.00;84.80;;;;;;10494591;28;20640;-80
2021/12/14 06:15:56;;;;;;;38.47;21.63;;;11.00;84.80;;;;;;10513731;28;20233;-80
2021/12/14 06:20:58;;;;;;;54.00;28.17;;;11.00;84.70;;;;;;10464605;28;20236;-77
2021/12/14 06:26:06;;;;;;;37.30;21.13;;;10.90;84.40;;;;;;10483118;28;20708;-77
2021/12/14 06:31:08;;;;;;;33.40;20.83;;;10.80;85.10;;;;;;10453326;28;20253;-78
2021/12/14 06:36:40;;;;;;;38.30;22.43;;;10.90;85.10;;;;;;10490140;28;20704;-78
2021/12/14 06:41:42;;;;;;;48.47;25.63;;;10.90;84.80;;;;;;10503801;28;20246;-79
2021/12/14 06:46:45;;;;;;;36.60;21.27;;;10.90;84.00;;;;;;10495938;28;20215;-78
2021/12/14 06:51:56;;;;;;;33.13;21.23;;;10.70;85.40;;;;;;10491182;28;20298;-79
2021/12/14 06:57:05;;;;;;;39.83;21.63;;;10.70;85.30;;;;;;10469659;28;20209;-78
2021/12/14 07:02:20;;;;;;;34.97;22.20;;;10.70;85.50;;;;;;10437499;28;20282;-78
2021/12/14 07:07:43;;;;;;;32.67;20.00;;;10.70;85.60;;;;;;10499481;28;20264;-78
2021/12/14 07:12:48;;;;;;;36.13;21.80;;;10.70;85.70;;;;;;10473747;28;20746;-79
2021/12/14 07:18:03;;;;;;;39.20;23.30;;;10.70;85.30;;;;;;10525134;28;20229;-79
2021/12/14 07:23:21;;;;;;;46.77;23.60;;;10.70;85.70;;;;;;10480507;28;20636;-79
2021/12/14 07:28:27;;;;;;;34.27;21.30;;;10.70;85.40;;;;;;10477039;28;20293;-79
2021/12/14 07:33:34;;;;;;;34.87;21.93;;;10.60;86.20;;;;;;10507606;28;20236;-79
2021/12/14 07:38:59;;;;;;;34.70;20.83;;;10.50;86.50;;;;;;10506375;28;20245;-79
2021/12/14 07:44:09;;;;;;;33.57;20.53;;;10.70;85.90;;;;;;10478595;28;20273;-79
2021/12/14 07:49:28;;;;;;;29.87;19.17;;;10.70;86.00;;;;;;10485990;28;20802;-79
2021/12/14 07:54:40;;;;;;;40.17;23.03;;;10.80;86.00;;;;;;10496432;28;20285;-78
2021/12/14 07:59:49;;;;;;;36.40;21.10;;;10.80;85.40;;;;;;10511234;28;20264;-78
2021/12/14 08:05:15;;;;;;;44.50;24.27;;;10.80;85.50;;;;;;10491378;28;20260;-79
2021/12/14 08:10:24;;;;;;;38.03;20.10;;;10.70;85.80;;;;;;10474842;28;20320;-78
2021/12/14 08:15:31;;;;;;;32.87;19.87;;;10.70;85.60;;;;;;10459776;28;20232;-79
2021/12/14 08:20:43;;;;;;;33.53;21.07;;;10.60;86.20;;;;;;10475415;28;20291;-78
2021/12/14 08:25:47;;;;;;;35.40;20.47;;;10.80;86.00;;;;;;10489561;28;20626;-79
2021/12/14 08:31:07;;;;;;;34.87;21.17;;;10.60;86.00;;;;;;10493240;28;20625;-78
2021/12/14 08:36:13;;;;;;;38.97;20.37;;;10.70;86.30;;;;;;10474820;28;20231;-78
2021/12/14 08:41:21;;;;;;;40.03;22.23;;;10.70;86.20;;;;;;10484631;28;20643;-79
2021/12/14 08:46:28;;;;;;;33.37;21.30;;;10.70;86.00;;;;;;10481436;28;20652;-78
2021/12/14 08:51:35;;;;;;;35.37;20.07;;;11.00;85.20;;;;;;10432217;28;20269;-78
2021/12/14 08:56:42;;;;;;;34.40;20.50;;;11.30;84.20;;;;;;10476963;28;20237;-78
2021/12/14 09:01:45;;;;;;;29.43;18.83;;;11.40;83.60;;;;;;10444271;28;20286;-77
2021/12/14 09:06:52;;;;;;;36.50;20.10;;;11.60;82.80;;;;;;10470572;28;20309;-77
2021/12/14 09:12:08;;;;;;;36.93;21.83;;;11.60;82.40;;;;;;10489844;28;20294;-77
2021/12/14 09:17:13;;;;;;;33.47;18.60;;;11.70;82.20;;;;;;10451626;28;20200;-77
2021/12/14 09:22:21;;;;;;;32.97;19.20;;;11.70;82.00;;;;;;10491500;28;20278;-77
2021/12/14 09:27:26;;;;;;;34.40;19.23;;;11.70;81.90;;;;;;10465710;28;20642;-78
2021/12/14 09:32:29;;;;;;;36.63;22.07;;;11.70;81.90;;;;;;10491619;28;20237;-78
2021/12/14 09:37:32;;;;;;;42.43;22.40;;;11.10;83.20;;;;;;10467429;28;20281;-78
2021/12/14 09:42:36;;;;;;;37.53;21.20;;;10.90;84.40;;;;;;10492870;28;20237;-78
2021/12/14 09:47:39;;;;;;;43.00;24.43;;;10.80;85.40;;;;;;10492252;28;20251;-78
2021/12/14 09:52:43;;;;;;;30.43;19.33;;;10.80;85.20;;;;;;10497641;28;20757;-81
2021/12/14 09:57:52;;;;;;;35.57;20.80;;;10.70;85.60;;;;;;10473306;28;20650;-78
2021/12/14 10:02:56;;;;;;;36.23;21.10;;;9.60;91.50;;;;;;10479217;28;20205;-77
2021/12/14 10:08:01;;;;;;;67.90;37.33;;;10.30;89.40;;;;;;10470457;28;20801;-78
2021/12/14 10:13:03;;;;;;;156.00;73.90;;;9.90;84.90;;;;;;10475688;28;20272;-78
2021/12/14 10:18:13;;;;;;;174.67;75.40;;;4.20;99.90;;;;;;10446171;28;20234;-78
2021/12/14 10:23:17;;;;;;;62.33;32.23;;;3.40;99.90;;;;;;10475733;28;20215;-80
2021/12/14 10:28:22;;;;;;;113.10;55.60;;;6.80;99.90;;;;;;10455961;28;20307;-80
2021/12/14 10:33:28;;;;;;;140.87;65.20;;;8.90;99.90;;;;;;10498244;28;20214;-79
2021/12/14 10:38:39;;;;;;;95.83;51.37;;;8.50;99.90;;;;;;10460949;28;20260;-80
2021/12/14 10:43:42;;;;;;;91.57;46.50;;;8.60;99.90;;;;;;10490099;28;20282;-80
2021/12/14 10:48:46;;;;;;;89.80;49.50;;;8.40;99.90;;;;;;10473183;28;20254;-80
2021/12/14 10:53:52;;;;;;;80.33;43.70;;;8.20;99.90;;;;;;10466193;28;20279;-79
2021/12/14 10:59:12;;;;;;;86.93;45.47;;;8.30;99.90;;;;;;10473180;28;20230;-79
2021/12/14 11:04:18;;;;;;;93.47;46.03;;;8.10;99.90;;;;;;10482335;28;20283;-80
2021/12/14 11:09:42;;;;;;;95.80;49.80;;;7.90;99.90;;;;;;10474599;28;20316;-80
2021/12/14 11:14:48;;;;;;;114.60;53.37;;;8.20;99.90;;;;;;10475519;28;20688;-79
2021/12/14 11:20:07;;;;;;;99.20;48.97;;;8.00;99.90;;;;;;10477732;28;20283;-79
2021/12/14 11:25:17;;;;;;;102.33;51.53;;;7.90;99.90;;;;;;10471524;28;20295;-80
2021/12/14 11:30:44;;;;;;;98.37;51.60;;;8.10;99.90;;;;;;10449748;28;20258;-79
2021/12/14 11:35:55;;;;;;;101.27;50.57;;;8.20;99.90;;;;;;10486273;28;20296;-79
2021/12/14 11:41:02;;;;;;;115.77;55.87;;;8.00;99.90;;;;;;10494725;28;20230;-79
2021/12/14 11:46:07;;;;;;;83.23;46.97;;;7.90;99.90;;;;;;10129229;28;10000267;-79
2021/12/14 11:51:10;;;;;;;119.57;57.53;;;8.00;99.90;;;;;;10488031;28;20242;-80
2021/12/14 11:56:16;;;;;;;129.93;60.67;;;8.00;99.90;;;;;;10439208;28;20239;-79
2021/12/14 12:01:32;;;;;;;112.63;56.43;;;8.00;99.90;;;;;;10456628;28;20222;-79
2021/12/14 12:12:25;;;;;;;129.70;62.70;;;7.90;99.90;;;;;;10439290;28;20281;-77
2021/12/14 12:17:50;;;;;;;129.23;60.77;;;8.00;99.90;;;;;;10492404;28;20218;-78
2021/12/14 12:22:55;;;;;;;132.90;60.60;;;7.90;99.90;;;;;;10480464;28;20283;-77
2021/12/14 12:28:01;;;;;;;124.03;62.17;;;7.70;99.90;;;;;;10485337;28;20268;-78
2021/12/14 12:33:08;;;;;;;167.17;74.30;;;7.80;99.90;;;;;;10472617;28;20271;-77
2021/12/14 12:38:25;;;;;;;140.57;67.63;;;7.80;99.90;;;;;;10471788;28;20249;-78
2021/12/14 12:43:46;;;;;;;141.73;65.77;;;7.90;99.90;;;;;;10483033;28;20225;-77
2021/12/14 12:48:55;;;;;;;110.47;55.43;;;7.80;99.90;;;;;;10455960;28;20254;-77
2021/12/14 12:54:14;;;;;;;140.93;71.33;;;8.00;99.90;;;;;;10479553;28;20237;-78
2021/12/14 12:59:47;;;;;;;108.50;54.80;;;7.80;99.90;;;;;;10443247;28;20222;-78
2021/12/14 13:05:13;;;;;;;108.43;55.47;;;8.00;99.90;;;;;;10458507;28;20277;-77
2021/12/14 13:10:24;;;;;;;81.57;44.87;;;8.20;99.90;;;;;;10471076;28;20306;-77
2021/12/14 13:16:11;;;;;;;100.13;52.33;;;8.40;99.90;;;;;;10460105;28;20229;-77
2021/12/14 13:21:33;;;;;;;68.40;37.83;;;8.40;99.90;;;;;;10321681;28;20264;-79
2021/12/14 13:27:00;;;;;;;64.13;37.30;;;9.00;99.90;;;;;;10313123;28;20253;-78
2021/12/14 13:32:31;;;;;;;70.03;38.13;;;9.40;99.90;;;;;;10338589;28;20768;-78
2021/12/14 13:37:40;;;;;;;70.30;39.90;;;9.70;99.90;;;;;;10305880;28;20250;-78
2021/12/14 13:42:57;;;;;;;66.67;38.43;;;10.40;96.80;;;;;;10333961;28;20246;-79
2021/12/14 13:48:02;;;;;;;67.17;38.87;;;10.20;96.70;;;;;;10333463;28;20701;-79
2021/12/14 13:53:07;;;;;;;87.63;43.87;;;10.10;96.90;;;;;;10472949;28;20412;-79
2021/12/14 13:58:16;;;;;;;70.20;39.13;;;8.70;99.90;;;;;;10539846;28;20289;-78
2021/12/14 14:03:22;;;;;;;69.63;40.63;;;8.70;99.90;;;;;;10476450;28;20235;-79
2021/12/14 14:08:31;;;;;;;71.60;39.77;;;9.00;99.90;;;;;;10495832;28;20300;-78
2021/12/14 14:13:36;;;;;;;80.93;42.53;;;9.80;99.20;;;;;;10489365;22;20302;-88
2021/12/14 14:18:49;;;;;;;68.17;39.13;;;9.90;98.00;;;;;;10526566;28;20225;-90
2021/12/14 14:23:53;;;;;;;62.33;34.93;;;9.90;97.70;;;;;;10478076;28;20217;-90
2021/12/14 14:29:06;;;;;;;65.87;36.47;;;10.40;96.20;;;;;;10499118;28;20232;-89
2021/12/14 14:34:35;;;;;;;54.30;32.87;;;10.80;94.50;;;;;;10495836;28;20187;-87
2021/12/14 14:39:51;;;;;;;68.80;39.30;;;11.10;93.50;;;;;;10513461;28;20191;-89
2021/12/14 14:44:56;;;;;;;64.57;37.93;;;11.00;93.20;;;;;;10532796;28;20192;-89
2021/12/14 14:50:08;;;;;;;69.73;40.20;;;9.80;95.70;;;;;;10550551;28;20221;-89
2021/12/14 14:55:25;;;;;;;56.97;33.83;;;9.50;97.20;;;;;;10527972;28;20224;-89
2021/12/14 15:00:38;;;;;;;60.30;34.47;;;9.90;97.00;;;;;;10526911;28;20214;-88
2021/12/14 15:06:13;;;;;;;54.70;33.03;;;10.70;94.90;;;;;;10473232;28;20195;-88
2021/12/14 15:11:32;;;;;;;55.13;33.87;;;11.20;93.00;;;;;;10473877;28;20241;-89
2021/12/14 15:16:52;;;;;;;51.37;32.23;;;11.50;91.80;;;;;;10472541;28;20215;-88
2021/12/14 15:21:57;;;;;;;53.33;32.47;;;11.60;91.40;;;;;;10454845;28;20215;-91
2021/12/14 15:27:23;;;;;;;59.50;33.93;;;11.80;90.60;;;;;;10478229;28;20427;-91
2021/12/14 15:32:26;;;;;;;70.13;38.50;;;11.80;90.40;;;;;;10482184;28;20610;-92
2021/12/14 15:37:43;;;;;;;51.20;32.20;;;11.30;91.10;;;;;;10479287;28;20687;-90
2021/12/14 15:43:00;;;;;;;58.80;35.50;;;10.50;93.00;;;;;;10477338;28;20212;-91
2021/12/14 15:48:10;;;;;;;54.90;32.67;;;10.90;92.50;;;;;;10476060;28;20230;-91
2021/12/14 15:53:25;;;;;;;50.00;29.97;;;11.20;91.90;;;;;;10436009;28;20224;-91
2021/12/14 15:58:32;;;;;;;60.67;34.43;;;11.50;91.10;;;;;;10451912;28;20267;-91
2021/12/14 16:03:34;;;;;;;51.97;31.70;;;11.40;90.80;;;;;;10471235;28;20199;-90
2021/12/14 16:08:39;;;;;;;47.90;30.13;;;11.30;91.10;;;;;;10473875;28;21929;-90
2021/12/14 16:19:05;;;;;;;47.73;28.93;;;11.80;90.20;;;;;;10460623;28;20289;-91
2021/12/14 16:24:12;;;;;;;51.23;29.97;;;12.00;88.90;;;;;;10455705;28;20279;-91
2021/12/14 16:29:14;;;;;;;43.13;28.57;;;12.10;88.40;;;;;;10491054;28;20244;-89
2021/12/14 16:34:19;;;;;;;44.40;27.33;;;12.20;87.50;;;;;;10445832;28;20236;-92
2021/12/14 16:39:26;;;;;;;50.03;29.03;;;12.10;87.40;;;;;;10449299;28;20238;-90
2021/12/14 16:44:52;;;;;;;43.90;27.70;;;12.10;87.30;;;;;;10458904;28;20251;-90
2021/12/14 16:50:00;;;;;;;45.90;28.70;;;12.10;87.10;;;;;;10469157;28;20702;-91
2021/12/14 16:55:18;;;;;;;49.73;29.47;;;12.30;86.30;;;;;;10459964;28;20253;-92
2021/12/14 17:00:23;;;;;;;42.60;27.87;;;12.10;86.90;;;;;;10444771;28;20230;-91
2021/12/14 17:05:30;;;;;;;40.70;25.73;;;12.10;87.10;;;;;;10471003;28;20666;-91
2021/12/14 17:10:36;;;;;;;48.70;28.00;;;10.70;94.90;;;;;;10462287;28;20225;-91
2021/12/14 17:15:43;;;;;;;42.33;26.80;;;11.70;91.40;;;;;;10469853;28;20280;-90
2021/12/14 17:20:45;;;;;;;45.57;27.50;;;12.00;90.40;;;;;;10473660;28;20208;-90
2021/12/14 17:25:50;;;;;;;41.30;25.30;;;12.30;89.40;;;;;;10450436;28;20239;-91
2021/12/14 17:30:52;;;;;;;40.57;25.40;;;12.50;87.40;;;;;;10462846;28;20243;-92
2021/12/14 17:35:55;;;;;;;38.53;25.13;;;12.60;86.90;;;;;;10479819;28;20224;-91
2021/12/14 17:41:00;;;;;;;38.07;25.60;;;12.70;86.40;;;;;;10512243;28;20551;-92
2021/12/14 17:46:04;;;;;;;43.53;25.03;;;12.60;85.90;;;;;;10522137;28;20295;-91
2021/12/14 17:51:11;;;;;;;37.33;24.10;;;12.60;85.80;;;;;;10491804;28;20224;-92
2021/12/14 17:56:15;;;;;;;38.87;25.17;;;12.60;85.90;;;;;;10513967;28;20201;-91
2021/12/14 18:01:23;;;;;;;39.13;24.10;;;12.50;86.50;;;;;;10483489;28;20273;-92
2021/12/14 18:06:29;;;;;;;41.27;24.13;;;12.60;86.00;;;;;;10492793;28;20212;-89
2021/12/14 18:11:37;;;;;;;41.17;25.03;;;12.80;84.90;;;;;;10479187;28;20254;-90
2021/12/14 18:16:51;;;;;;;33.20;23.07;;;12.80;84.50;;;;;;10487915;28;20320;-91
2021/12/14 18:22:08;;;;;;;38.90;24.03;;;12.90;84.10;;;;;;10460484;28;20270;-91
2021/12/14 18:27:14;;;;;;;37.33;23.50;;;12.80;84.20;;;;;;10455856;28;20268;-91
2021/12/14 18:32:19;;;;;;;36.90;22.07;;;12.80;83.90;;;;;;10478446;28;20261;-91
2021/12/14 18:37:29;;;;;;;39.67;22.00;;;12.90;83.50;;;;;;10468525;28;20236;-90
2021/12/14 18:42:35;;;;;;;36.97;23.03;;;12.90;83.60;;;;;;10480220;28;20235;-91
2021/12/14 18:53:28;;;;;;;32.57;20.77;;;12.70;83.90;;;;;;10477824;28;20641;-91
2021/12/14 18:58:37;;;;;;;32.73;21.93;;;12.80;83.90;;;;;;10485443;28;20205;-91
2021/12/14 19:03:46;;;;;;;35.90;21.77;;;12.70;84.00;;;;;;10495034;28;20196;-91
2021/12/14 19:08:54;;;;;;;32.40;20.40;;;12.80;83.40;;;;;;10483972;28;20216;-90
2021/12/14 19:14:03;;;;;;;34.73;21.93;;;12.60;83.70;;;;;;10463105;28;20237;-91
2021/12/14 19:19:07;;;;;;;30.87;20.77;;;12.80;83.40;;;;;;10474058;28;20940;-91
2021/12/14 19:24:20;;;;;;;31.73;21.03;;;12.80;83.30;;;;;;10483019;28;20209;-91
2021/12/14 19:29:40;;;;;;;36.03;21.87;;;12.70;83.70;;;;;;10477740;28;20600;-91
2021/12/14 19:34:51;;;;;;;32.43;19.67;;;12.70;83.70;;;;;;10472625;28;20657;-91
2021/12/14 19:39:56;;;;;;;32.57;20.50;;;12.80;83.50;;;;;;10470354;28;20212;-92
2021/12/14 19:45:09;;;;;;;32.03;19.43;;;12.80;83.30;;;;;;10475043;28;20212;-90
2021/12/14 19:50:23;;;;;;;40.23;21.17;;;12.70;83.20;;;;;;10483327;28;20232;-90
2021/12/14 19:55:30;;;;;;;33.70;19.27;;;12.70;83.30;;;;;;10479405;28;20195;-91
2021/12/14 20:00:38;;;;;;;32.17;19.87;;;12.70;83.40;;;;;;10513102;28;20227;-90
2021/12/14 20:05:46;;;;;;;29.10;18.53;;;12.60;83.50;;;;;;10511557;28;20237;-90
2021/12/14 20:11:21;;;;;;;30.00;19.00;;;12.50;84.10;;;;;;10502984;28;20233;-90
2021/12/14 20:16:24;;;;;;;30.50;18.80;;;12.60;84.00;;;;;;10310069;28;20235;-90
2021/12/14 20:21:30;;;;;;;30.40;19.07;;;12.60;83.70;;;;;;10319721;28;20260;-90
2021/12/14 20:26:38;;;;;;;28.63;17.63;;;12.60;83.80;;;;;;10313857;28;20215;-91
2021/12/14 20:31:46;;;;;;;26.93;17.03;;;12.70;83.70;;;;;;10306879;28;20691;-89
2021/12/14 20:36:57;;;;;;;29.17;19.00;;;12.70;83.20;;;;;;10328166;28;20209;-90
2021/12/14 20:42:14;;;;;;;30.07;18.37;;;12.70;83.40;;;;;;10322899;28;20331;-91
2021/12/14 20:47:17;;;;;;;27.37;17.50;;;12.70;83.30;;;;;;10291441;28;20726;-90
2021/12/14 20:52:26;;;;;;;28.33;16.73;;;12.80;83.00;;;;;;10373444;28;20260;-89
2021/12/14 20:57:42;;;;;;;24.13;15.83;;;12.80;82.70;;;;;;10436673;28;20743;-91
2021/12/14 21:02:48;;;;;;;30.80;18.57;;;12.80;82.70;;;;;;10427695;28;20204;-90
2021/12/14 21:07:51;;;;;;;31.53;18.53;;;12.90;82.60;;;;;;10428173;28;20242;-91
2021/12/14 21:12:56;;;;;;;23.77;16.23;;;12.80;82.60;;;;;;10422900;28;20249;-90
2021/12/14 21:18:02;;;;;;;24.33;16.80;;;12.70;82.80;;;;;;10414827;28;20362;-90
2021/12/14 21:23:08;;;;;;;25.27;16.77;;;12.60;83.20;;;;;;10412895;28;20205;-90
2021/12/14 21:28:27;;;;;;;26.23;16.90;;;12.70;83.10;;;;;;10421857;28;20256;-91
2021/12/14 21:33:45;;;;;;;26.90;16.83;;;12.70;83.30;;;;;;10430820;28;20796;-91
2021/12/14 21:38:58;;;;;;;26.77;16.67;;;12.60;83.20;;;;;;10435022;28;20275;-91
2021/12/14 21:49:27;;;;;;;25.97;15.80;;;12.60;83.40;;;;;;10453956;28;20614;-90
2021/12/14 21:54:36;;;;;;;25.07;16.37;;;12.60;83.30;;;;;;10420425;28;20278;-90
2021/12/14 21:59:43;;;;;;;22.30;15.07;;;12.60;83.30;;;;;;10431377;28;20293;-90
2021/12/14 22:04:47;;;;;;;23.10;15.37;;;12.70;83.00;;;;;;10448357;28;20250;-90
2021/12/14 22:09:51;;;;;;;22.83;14.67;;;12.70;83.00;;;;;;10417095;28;20238;-90
2021/12/14 22:14:59;;;;;;;22.63;14.30;;;12.70;82.90;;;;;;10420516;28;20669;-90
2021/12/14 22:20:06;;;;;;;21.60;14.27;;;12.70;83.00;;;;;;10414681;28;20229;-90
2021/12/14 22:25:13;;;;;;;22.27;15.23;;;12.70;82.90;;;;;;10438555;28;20231;-90
2021/12/14 22:30:17;;;;;;;20.40;14.23;;;12.50;83.50;;;;;;10411352;28;21016;-90
2021/12/14 22:35:19;;;;;;;22.03;14.40;;;12.60;83.60;;;;;;10429668;28;20285;-90
2021/12/14 22:40:35;;;;;;;23.37;15.50;;;12.60;83.60;;;;;;10426780;28;20224;-91
2021/12/14 22:45:37;;;;;;;24.13;14.47;;;12.50;83.70;;;;;;10396477;28;20293;-91
2021/12/14 22:50:40;;;;;;;22.03;14.50;;;12.60;83.30;;;;;;10443582;28;20314;-91
2021/12/14 22:55:44;;;;;;;21.40;14.03;;;12.70;83.30;;;;;;10432693;28;20233;-89
2021/12/14 23:00:51;;;;;;;22.33;14.30;;;12.70;83.30;;;;;;10411714;28;20243;-90
2021/12/14 23:05:54;;;;;;;20.13;14.23;;;12.60;83.50;;;;;;10405997;28;20664;-91
2021/12/14 23:10:56;;;;;;;18.87;13.20;;;12.70;83.30;;;;;;10433292;28;20239;-90
2021/12/14 23:16:04;;;;;;;20.93;13.83;;;12.60;83.50;;;;;;10414320;28;20658;-90
2021/12/14 23:21:10;;;;;;;21.37;14.23;;;12.60;83.40;;;;;;10420028;28;20228;-90
2021/12/14 23:26:13;;;;;;;19.43;13.10;;;12.40;84.00;;;;;;10419990;28;20228;-90
2021/12/14 23:31:15;;;;;;;20.87;13.27;;;12.40;84.20;;;;;;10412780;28;20322;-91
2021/12/14 23:36:22;;;;;;;20.77;12.77;;;12.40;84.30;;;;;;10390351;28;20234;-92
2021/12/14 23:41:24;;;;;;;19.97;14.00;;;12.30;84.80;;;;;;10399019;28;20274;-93
2021/12/14 23:51:30;;;;;;;22.93;13.67;;;12.50;84.00;;;;;;10453122;28;20650;-92
2021/12/14 23:56:33;;;;;;;18.23;12.00;;;12.50;84.10;;;;;;10434204;28;20201;-93
